sensor_id;sensor_type;location;lat;lon;timestamp;pressure;altitude;pressure_sealevel;temperature;humidity
17772;BME280;9010;32.624;-96.938;2022-08-19T00:01:22;98873.25;;;29.06;100.00
17772;BME280;9010;32.624;-96.938;2022-08-19T00:03:50;98867.00;;;28.93;100.00
17772;BME280;9010;32.624;-96.938;2022-08-19T00:06:19;98863.88;;;28.83;100.00
17772;BME280;9010;32.624;-96.938;2022-08-19T00:08:47;98874.47;;;28.84;100.00
17772;BME280;9010;32.624;-96.938;2022-08-19T00:11:17;98876.13;;;28.79;100.00
17772;BME280;9010;32.624;-96.938;2022-08-19T00:13:48;98876.34;;;28.77;100.00
17772;BME280;9010;32.624;-96.938;2022-08-19T00:16:17;98870.28;;;28.69;100.00
17772;BME280;9010;32.624;-96.938;2022-08-19T00:18:47;98865.28;;;28.66;100.00
17772;BME280;9010;32.624;-96.938;2022-08-19T00:21:15;98866.94;;;28.67;100.00
17772;BME280;9010;32.624;-96.938;2022-08-19T00:23:44;98869.38;;;28.62;100.00
17772;BME280;9010;32.624;-96.938;2022-08-19T00:26:12;98862.53;;;28.59;100.00
17772;BME280;9010;32.624;-96.938;2022-08-19T00:28:41;98861.47;;;28.53;100.00
17772;BME280;9010;32.624;-96.938;2022-08-19T00:31:10;98862.69;;;28.44;100.00
17772;BME280;9010;32.624;-96.938;2022-08-19T00:33:39;98864.75;;;28.42;100.00
17772;BME280;9010;32.624;-96.938;2022-08-19T00:36:08;98865.56;;;28.36;100.00
17772;BME280;9010;32.624;-96.938;2022-08-19T00:38:37;98870.34;;;28.34;100.00
17772;BME280;9010;32.624;-96.938;2022-08-19T00:41:07;98871.59;;;28.32;100.00
17772;BME280;9010;32.624;-96.938;2022-08-19T00:43:36;98872.63;;;28.31;100.00
17772;BME280;9010;32.624;-96.938;2022-08-19T00:46:05;98872.63;;;28.31;100.00
17772;BME280;9010;32.624;-96.938;2022-08-19T00:48:35;98866.41;;;28.37;100.00
17772;BME280;9010;32.624;-96.938;2022-08-19T00:51:05;98875.81;;;28.41;100.00
17772;BME280;9010;32.624;-96.938;2022-08-19T00:53:33;98878.06;;;28.37;100.00
17772;BME280;9010;32.624;-96.938;2022-08-19T00:56:03;98876.78;;;28.33;100.00
17772;BME280;9010;32.624;-96.938;2022-08-19T00:58:34;98886.38;;;28.29;100.00
17772;BME280;9010;32.624;-96.938;2022-08-19T01:01:04;98881.34;;;28.26;100.00
17772;BME280;9010;32.624;-96.938;2022-08-19T01:03:35;98883.81;;;28.21;100.00
17772;BME280;9010;32.624;-96.938;2022-08-19T01:06:03;98883.19;;;28.19;100.00
17772;BME280;9010;32.624;-96.938;2022-08-19T01:08:34;98882.75;;;28.16;100.00
17772;BME280;9010;32.624;-96.938;2022-08-19T01:11:02;98890.22;;;28.14;100.00
17772;BME280;9010;32.624;-96.938;2022-08-19T01:13:33;98893.16;;;28.12;100.00
17772;BME280;9010;32.624;-96.938;2022-08-19T01:16:04;98892.47;;;28.04;100.00
17772;BME280;9010;32.624;-96.938;2022-08-19T01:18:38;98894.06;;;27.98;100.00
17772;BME280;9010;32.624;-96.938;2022-08-19T01:21:10;98885.28;;;27.89;100.00
17772;BME280;9010;32.624;-96.938;2022-08-19T01:23:43;98890.66;;;27.83;100.00
17772;BME280;9010;32.624;-96.938;2022-08-19T01:26:13;98886.66;;;27.79;100.00
17772;BME280;9010;32.624;-96.938;2022-08-19T01:28:44;98885.19;;;27.76;100.00
17772;BME280;9010;32.624;-96.938;2022-08-19T01:31:14;98893.28;;;27.70;100.00
17772;BME280;9010;32.624;-96.938;2022-08-19T01:33:43;98887.38;;;27.60;100.00
17772;BME280;9010;32.624;-96.938;2022-08-19T01:36:16;98884.69;;;27.60;100.00
17772;BME280;9010;32.624;-96.938;2022-08-19T01:38:51;98889.25;;;27.59;100.00
17772;BME280;9010;32.624;-96.938;2022-08-19T01:41:20;98884.81;;;27.52;100.00
17772;BME280;9010;32.624;-96.938;2022-08-19T01:43:50;98888.56;;;27.51;100.00
17772;BME280;9010;32.624;-96.938;2022-08-19T01:46:19;98895.56;;;27.45;100.00
17772;BME280;9010;32.624;-96.938;2022-08-19T01:48:47;98892.03;;;27.45;100.00
17772;BME280;9010;32.624;-96.938;2022-08-19T01:51:16;98894.84;;;27.36;100.00
17772;BME280;9010;32.624;-96.938;2022-08-19T01:53:47;98893.19;;;27.35;100.00
17772;BME280;9010;32.624;-96.938;2022-08-19T01:56:17;98906.19;;;27.47;100.00
17772;BME280;9010;32.624;-96.938;2022-08-19T01:58:49;98913.13;;;27.34;100.00
17772;BME280;9010;32.624;-96.938;2022-08-19T02:01:18;98903.03;;;27.22;100.00
17772;BME280;9010;32.624;-96.938;2022-08-19T02:03:46;98914.66;;;27.22;100.00
17772;BME280;9010;32.624;-96.938;2022-08-19T02:06:14;98913.81;;;27.22;100.00
17772;BME280;9010;32.624;-96.938;2022-08-19T02:08:43;98910.88;;;27.17;100.00
17772;BME280;9010;32.624;-96.938;2022-08-19T02:11:22;98921.50;;;27.18;100.00
17772;BME280;9010;32.624;-96.938;2022-08-19T02:13:52;98916.25;;;27.10;100.00
17772;BME280;9010;32.624;-96.938;2022-08-19T02:16:21;98926.13;;;27.03;100.00
17772;BME280;9010;32.624;-96.938;2022-08-19T02:18:49;98917.78;;;26.98;100.00
17772;BME280;9010;32.624;-96.938;2022-08-19T02:21:19;98929.78;;;26.96;100.00
17772;BME280;9010;32.624;-96.938;2022-08-19T02:23:48;98929.34;;;26.92;100.00
17772;BME280;9010;32.624;-96.938;2022-08-19T02:26:19;98936.41;;;26.93;100.00
17772;BME280;9010;32.624;-96.938;2022-08-19T02:28:47;98938.81;;;26.88;100.00
17772;BME280;9010;32.624;-96.938;2022-08-19T02:31:18;98955.84;;;26.89;100.00
17772;BME280;9010;32.624;-96.938;2022-08-19T02:33:50;98958.09;;;26.85;100.00
17772;BME280;9010;32.624;-96.938;2022-08-19T02:36:18;98960.34;;;26.81;100.00
17772;BME280;9010;32.624;-96.938;2022-08-19T02:38:48;98960.88;;;26.77;100.00
17772;BME280;9010;32.624;-96.938;2022-08-19T02:41:16;98962.09;;;26.74;100.00
17772;BME280;9010;32.624;-96.938;2022-08-19T02:43:47;98970.19;;;26.74;100.00
17772;BME280;9010;32.624;-96.938;2022-08-19T02:46:16;98982.56;;;26.69;100.00
17772;BME280;9010;32.624;-96.938;2022-08-19T02:48:47;98989.81;;;26.68;100.00
17772;BME280;9010;32.624;-96.938;2022-08-19T02:51:18;98986.69;;;26.65;100.00
17772;BME280;9010;32.624;-96.938;2022-08-19T02:53:47;98997.00;;;26.61;100.00
17772;BME280;9010;32.624;-96.938;2022-08-19T02:56:15;98996.91;;;26.55;100.00
17772;BME280;9010;32.624;-96.938;2022-08-19T02:58:43;99004.16;;;26.54;100.00
17772;BME280;9010;32.624;-96.938;2022-08-19T03:01:20;99005.59;;;26.50;100.00
17772;BME280;9010;32.624;-96.938;2022-08-19T03:03:48;99007.25;;;26.51;100.00
17772;BME280;9010;32.624;-96.938;2022-08-19T03:06:17;99009.28;;;26.49;100.00
17772;BME280;9010;32.624;-96.938;2022-08-19T03:08:47;99010.03;;;26.43;100.00
17772;BME280;9010;32.624;-96.938;2022-08-19T03:11:17;99013.09;;;26.40;100.00
17772;BME280;9010;32.624;-96.938;2022-08-19T03:13:46;99022.03;;;26.41;100.00
17772;BME280;9010;32.624;-96.938;2022-08-19T03:16:17;99025.75;;;26.40;100.00
17772;BME280;9010;32.624;-96.938;2022-08-19T03:18:46;99017.38;;;26.35;100.00
17772;BME280;9010;32.624;-96.938;2022-08-19T03:21:16;99022.41;;;26.38;100.00
17772;BME280;9010;32.624;-96.938;2022-08-19T03:23:45;99023.81;;;26.34;100.00
17772;BME280;9010;32.624;-96.938;2022-08-19T03:26:13;99027.31;;;26.34;100.00
17772;BME280;9010;32.624;-96.938;2022-08-19T03:28:42;99027.69;;;26.31;100.00
17772;BME280;9010;32.624;-96.938;2022-08-19T03:31:13;99024.34;;;26.29;100.00
17772;BME280;9010;32.624;-96.938;2022-08-19T03:33:43;99030.13;;;26.26;100.00
17772;BME280;9010;32.624;-96.938;2022-08-19T03:36:14;99029.63;;;26.22;100.00
17772;BME280;9010;32.624;-96.938;2022-08-19T03:38:44;99032.63;;;26.27;100.00
17772;BME280;9010;32.624;-96.938;2022-08-19T03:41:17;99039.13;;;26.18;100.00
17772;BME280;9010;32.624;-96.938;2022-08-19T03:43:46;99036.44;;;26.18;100.00
17772;BME280;9010;32.624;-96.938;2022-08-19T03:46:16;99038.13;;;26.19;100.00
17772;BME280;9010;32.624;-96.938;2022-08-19T03:48:50;99044.16;;;26.21;100.00
17772;BME280;9010;32.624;-96.938;2022-08-19T03:51:22;99036.59;;;26.17;100.00
17772;BME280;9010;32.624;-96.938;2022-08-19T03:53:51;99041.19;;;26.16;100.00
17772;BME280;9010;32.624;-96.938;2022-08-19T03:56:19;99037.09;;;26.20;100.00
17772;BME280;9010;32.624;-96.938;2022-08-19T03:58:47;99046.22;;;26.19;100.00
17772;BME280;9010;32.624;-96.938;2022-08-19T04:01:19;99045.06;;;26.28;100.00
17772;BME280;9010;32.624;-96.938;2022-08-19T04:03:49;99050.94;;;26.32;100.00
17772;BME280;9010;32.624;-96.938;2022-08-19T04:06:20;99042.75;;;26.25;100.00
17772;BME280;9010;32.624;-96.938;2022-08-19T04:08:51;99045.06;;;26.28;100.00
17772;BME280;9010;32.624;-96.938;2022-08-19T04:11:23;99051.22;;;26.22;100.00
17772;BME280;9010;32.624;-96.938;2022-08-19T04:13:52;99043.53;;;26.19;100.00
17772;BME280;9010;32.624;-96.938;2022-08-19T04:16:22;99041.75;;;26.26;100.00
17772;BME280;9010;32.624;-96.938;2022-08-19T04:18:52;99048.22;;;26.17;100.00
17772;BME280;9010;32.624;-96.938;2022-08-19T04:21:22;99044.91;;;26.15;100.00
17772;BME280;9010;32.624;-96.938;2022-08-19T04:23:51;99046.91;;;26.13;100.00
17772;BME280;9010;32.624;-96.938;2022-08-19T04:26:22;99056.38;;;26.09;100.00
17772;BME280;9010;32.624;-96.938;2022-08-19T04:28:52;99052.56;;;26.04;100.00
17772;BME280;9010;32.624;-96.938;2022-08-19T04:31:22;99054.75;;;26.00;100.00
17772;BME280;9010;32.624;-96.938;2022-08-19T04:33:53;99057.38;;;25.94;100.00
17772;BME280;9010;32.624;-96.938;2022-08-19T04:36:24;99062.41;;;25.97;100.00
17772;BME280;9010;32.624;-96.938;2022-08-19T04:38:54;99058.94;;;25.88;100.00
17772;BME280;9010;32.624;-96.938;2022-08-19T04:41:23;99072.09;;;25.83;100.00
17772;BME280;9010;32.624;-96.938;2022-08-19T04:44:22;99066.06;;;25.81;100.00
17772;BME280;9010;32.624;-96.938;2022-08-19T04:46:51;99070.13;;;25.77;100.00
17772;BME280;9010;32.624;-96.938;2022-08-19T04:49:22;99073.84;;;25.76;100.00
17772;BME280;9010;32.624;-96.938;2022-08-19T04:51:51;99068.34;;;25.69;100.00
17772;BME280;9010;32.624;-96.938;2022-08-19T04:54:21;99067.06;;;25.80;100.00
17772;BME280;9010;32.624;-96.938;2022-08-19T04:56:51;99070.44;;;25.82;100.00
17772;BME280;9010;32.624;-96.938;2022-08-19T04:59:20;99062.16;;;25.84;100.00
17772;BME280;9010;32.624;-96.938;2022-08-19T05:01:49;99062.03;;;25.77;100.00
17772;BME280;9010;32.624;-96.938;2022-08-19T05:04:20;99070.69;;;25.73;100.00
17772;BME280;9010;32.624;-96.938;2022-08-19T05:06:48;99049.97;;;25.73;100.00
17772;BME280;9010;32.624;-96.938;2022-08-19T05:09:18;99057.03;;;25.74;100.00
17772;BME280;9010;32.624;-96.938;2022-08-19T05:11:47;99065.66;;;25.69;100.00
17772;BME280;9010;32.624;-96.938;2022-08-19T05:14:17;99067.22;;;25.64;100.00
17772;BME280;9010;32.624;-96.938;2022-08-19T05:16:45;99057.41;;;25.71;100.00
17772;BME280;9010;32.624;-96.938;2022-08-19T05:19:14;99053.59;;;25.65;100.00
17772;BME280;9010;32.624;-96.938;2022-08-19T05:22:01;99060.34;;;25.61;100.00
17772;BME280;9010;32.624;-96.938;2022-08-19T05:24:46;99059.78;;;25.66;100.00
17772;BME280;9010;32.624;-96.938;2022-08-19T05:27:14;99064.50;;;25.64;100.00
17772;BME280;9010;32.624;-96.938;2022-08-19T05:29:42;99059.50;;;25.61;100.00
17772;BME280;9010;32.624;-96.938;2022-08-19T05:32:10;99059.78;;;25.66;100.00
17772;BME280;9010;32.624;-96.938;2022-08-19T05:34:38;99057.81;;;25.60;100.00
17772;BME280;9010;32.624;-96.938;2022-08-19T05:37:08;99045.19;;;25.60;100.00
17772;BME280;9010;32.624;-96.938;2022-08-19T05:39:37;99052.13;;;25.55;100.00
17772;BME280;9010;32.624;-96.938;2022-08-19T05:42:08;99042.25;;;25.47;100.00
17772;BME280;9010;32.624;-96.938;2022-08-19T05:44:39;99043.59;;;25.43;100.00
17772;BME280;9010;32.624;-96.938;2022-08-19T05:47:11;99054.19;;;25.45;100.00
17772;BME280;9010;32.624;-96.938;2022-08-19T05:49:41;99054.53;;;25.50;100.00
17772;BME280;9010;32.624;-96.938;2022-08-19T05:52:13;99051.03;;;25.41;100.00
17772;BME280;9010;32.624;-96.938;2022-08-19T05:54:41;99054.91;;;25.39;100.00
17772;BME280;9010;32.624;-96.938;2022-08-19T05:57:11;99055.25;;;25.36;100.00
17772;BME280;9010;32.624;-96.938;2022-08-19T05:59:39;99059.59;;;25.45;100.00
17772;BME280;9010;32.624;-96.938;2022-08-19T06:02:08;99058.94;;;25.43;100.00
17772;BME280;9010;32.624;-96.938;2022-08-19T06:04:36;99050.19;;;25.41;100.00
17772;BME280;9010;32.624;-96.938;2022-08-19T06:07:05;99054.63;;;25.34;100.00
17772;BME280;9010;32.624;-96.938;2022-08-19T06:09:35;99051.25;;;25.32;100.00
17772;BME280;9010;32.624;-96.938;2022-08-19T06:12:03;99041.56;;;25.23;100.00
17772;BME280;9010;32.624;-96.938;2022-08-19T06:14:34;99038.53;;;25.17;100.00
17772;BME280;9010;32.624;-96.938;2022-08-19T06:17:03;99039.03;;;25.21;100.00
17772;BME280;9010;32.624;-96.938;2022-08-19T06:19:31;99031.88;;;25.13;100.00
17772;BME280;9010;32.624;-96.938;2022-08-19T06:22:00;99032.88;;;25.12;100.00
17772;BME280;9010;32.624;-96.938;2022-08-19T06:24:29;99023.50;;;25.08;100.00
17772;BME280;9010;32.624;-96.938;2022-08-19T06:27:00;99024.69;;;25.06;100.00
17772;BME280;9010;32.624;-96.938;2022-08-19T06:29:28;99022.50;;;25.01;100.00
17772;BME280;9010;32.624;-96.938;2022-08-19T06:32:00;99017.00;;;24.95;100.00
17772;BME280;9010;32.624;-96.938;2022-08-19T06:34:30;99021.88;;;24.99;100.00
17772;BME280;9010;32.624;-96.938;2022-08-19T06:37:00;99012.66;;;24.94;100.00
17772;BME280;9010;32.624;-96.938;2022-08-19T06:39:30;99012.16;;;24.90;100.00
17772;BME280;9010;32.624;-96.938;2022-08-19T06:42:02;99010.16;;;24.84;100.00
17772;BME280;9010;32.624;-96.938;2022-08-19T06:44:34;99021.78;;;24.85;100.00
17772;BME280;9010;32.624;-96.938;2022-08-19T06:47:04;99019.91;;;24.85;100.00
17772;BME280;9010;32.624;-96.938;2022-08-19T06:49:33;99030.34;;;24.88;100.00
17772;BME280;9010;32.624;-96.938;2022-08-19T06:52:01;99029.13;;;24.91;100.00
17772;BME280;9010;32.624;-96.938;2022-08-19T06:54:30;99018.19;;;24.92;100.00
17772;BME280;9010;32.624;-96.938;2022-08-19T06:57:00;99020.38;;;24.97;100.00
17772;BME280;9010;32.624;-96.938;2022-08-19T06:59:30;99012.84;;;24.84;100.00
17772;BME280;9010;32.624;-96.938;2022-08-19T07:02:01;99015.91;;;24.81;100.00
17772;BME280;9010;32.624;-96.938;2022-08-19T07:04:31;99012.88;;;24.76;100.00
17772;BME280;9010;32.624;-96.938;2022-08-19T07:07:02;99000.38;;;24.91;100.00
17772;BME280;9010;32.624;-96.938;2022-08-19T07:09:32;99005.78;;;24.91;100.00
17772;BME280;9010;32.624;-96.938;2022-08-19T07:12:03;99003.13;;;24.75;100.00
17772;BME280;9010;32.624;-96.938;2022-08-19T07:14:31;99003.47;;;24.72;100.00
17772;BME280;9010;32.624;-96.938;2022-08-19T07:17:01;98993.78;;;24.63;100.00
17772;BME280;9010;32.624;-96.938;2022-08-19T07:19:30;98989.41;;;24.62;100.00
17772;BME280;9010;32.624;-96.938;2022-08-19T07:21:58;98985.03;;;24.61;100.00
17772;BME280;9010;32.624;-96.938;2022-08-19T07:24:28;98989.59;;;24.52;100.00
17772;BME280;9010;32.624;-96.938;2022-08-19T07:26:58;98984.94;;;24.46;100.00
17772;BME280;9010;32.624;-96.938;2022-08-19T07:29:31;98985.78;;;24.47;100.00
17772;BME280;9010;32.624;-96.938;2022-08-19T07:32:00;98987.47;;;24.48;100.00
17772;BME280;9010;32.624;-96.938;2022-08-19T07:34:30;98990.31;;;24.46;100.00
17772;BME280;9010;32.624;-96.938;2022-08-19T07:37:04;98984.84;;;24.32;100.00
17772;BME280;9010;32.624;-96.938;2022-08-19T07:39:34;98989.53;;;24.30;100.00
17772;BME280;9010;32.624;-96.938;2022-08-19T07:42:06;98991.88;;;24.33;100.00
17772;BME280;9010;32.624;-96.938;2022-08-19T07:44:37;98995.59;;;24.32;100.00
17772;BME280;9010;32.624;-96.938;2022-08-19T07:47:05;98985.00;;;24.30;100.00
17772;BME280;9010;32.624;-96.938;2022-08-19T07:49:34;98992.91;;;24.32;100.00
17772;BME280;9010;32.624;-96.938;2022-08-19T07:52:05;98989.69;;;24.36;100.00
17772;BME280;9010;32.624;-96.938;2022-08-19T07:54:39;98989.75;;;24.20;100.00
17772;BME280;9010;32.624;-96.938;2022-08-19T07:57:08;98976.78;;;24.24;100.00
17772;BME280;9010;32.624;-96.938;2022-08-19T07:59:38;98979.00;;;24.20;100.00
17772;BME280;9010;32.624;-96.938;2022-08-19T08:02:06;98981.50;;;24.22;100.00
17772;BME280;9010;32.624;-96.938;2022-08-19T08:04:35;98983.84;;;24.25;100.00
17772;BME280;9010;32.624;-96.938;2022-08-19T08:07:21;98981.16;;;24.25;100.00
17772;BME280;9010;32.624;-96.938;2022-08-19T08:10:06;98975.28;;;24.21;100.00
17772;BME280;9010;32.624;-96.938;2022-08-19T08:12:38;98982.34;;;24.22;100.00
17772;BME280;9010;32.624;-96.938;2022-08-19T08:15:12;98974.47;;;24.21;100.00
17772;BME280;9010;32.624;-96.938;2022-08-19T08:17:43;98971.09;;;24.19;100.00
17772;BME280;9010;32.624;-96.938;2022-08-19T08:20:12;98981.50;;;24.22;100.00
17772;BME280;9010;32.624;-96.938;2022-08-19T08:22:43;98976.81;;;24.16;100.00
17772;BME280;9010;32.624;-96.938;2022-08-19T08:25:29;98973.97;;;24.17;100.00
17772;BME280;9010;32.624;-96.938;2022-08-19T08:27:58;98976.81;;;24.16;100.00
17772;BME280;9010;32.624;-96.938;2022-08-19T08:30:29;98978.00;;;24.13;100.00
17772;BME280;9010;32.624;-96.938;2022-08-19T08:32:59;98975.81;;;24.09;100.00
17772;BME280;9010;32.624;-96.938;2022-08-19T08:35:27;98976.16;;;24.14;100.00
17772;BME280;9010;32.624;-96.938;2022-08-19T08:37:56;98970.75;;;24.22;100.00
17772;BME280;9010;32.624;-96.938;2022-08-19T08:40:29;98961.69;;;24.23;100.00
17772;BME280;9010;32.624;-96.938;2022-08-19T08:43:03;98965.88;;;24.25;100.00
17772;BME280;9010;32.624;-96.938;2022-08-19T08:45:41;98966.53;;;24.27;100.00
17772;BME280;9010;32.624;-96.938;2022-08-19T08:48:16;98969.75;;;24.23;100.00
17772;BME280;9010;32.624;-96.938;2022-08-19T08:50:47;98970.06;;;24.28;100.00
17772;BME280;9010;32.624;-96.938;2022-08-19T08:53:19;98971.75;;;24.29;100.00
17772;BME280;9010;32.624;-96.938;2022-08-19T08:55:48;98972.59;;;24.29;100.00
17772;BME280;9010;32.624;-96.938;2022-08-19T08:58:21;98974.25;;;24.30;100.00
17772;BME280;9010;32.624;-96.938;2022-08-19T09:00:54;98965.00;;;24.33;100.00
17772;BME280;9010;32.624;-96.938;2022-08-19T09:03:27;98961.00;;;24.29;100.00
17772;BME280;9010;32.624;-96.938;2022-08-19T09:06:03;98972.22;;;24.32;100.00
17772;BME280;9010;32.624;-96.938;2022-08-19T09:08:42;98974.44;;;24.29;100.00
17772;BME280;9010;32.624;-96.938;2022-08-19T09:11:15;98969.91;;;24.29;100.00
17772;BME280;9010;32.624;-96.938;2022-08-19T09:14:06;98968.88;;;24.30;100.00
17772;BME280;9010;32.624;-96.938;2022-08-19T09:16:38;98963.69;;;24.29;100.00
17772;BME280;9010;32.624;-96.938;2022-08-19T09:19:08;98968.38;;;24.27;100.00
17772;BME280;9010;32.624;-96.938;2022-08-19T09:21:37;98975.41;;;24.36;100.00
17772;BME280;9010;32.624;-96.938;2022-08-19T09:24:07;98973.75;;;24.35;100.00
17772;BME280;9010;32.624;-96.938;2022-08-19T09:26:35;98970.72;;;24.38;100.00
17772;BME280;9010;32.624;-96.938;2022-08-19T09:29:03;98980.75;;;24.44;100.00
17772;BME280;9010;32.624;-96.938;2022-08-19T09:31:32;98975.38;;;24.44;100.00
17772;BME280;9010;32.624;-96.938;2022-08-19T09:34:02;98971.34;;;24.48;100.00
17772;BME280;9010;32.624;-96.938;2022-08-19T09:36:31;98985.44;;;24.50;100.00
17772;BME280;9010;32.624;-96.938;2022-08-19T09:39:03;98991.66;;;24.50;100.00
17772;BME280;9010;32.624;-96.938;2022-08-19T09:41:31;98983.41;;;24.52;100.00
17772;BME280;9010;32.624;-96.938;2022-08-19T09:44:00;98990.44;;;24.53;100.00
17772;BME280;9010;32.624;-96.938;2022-08-19T09:46:29;98989.44;;;24.54;100.00
17772;BME280;9010;32.624;-96.938;2022-08-19T09:48:59;98984.91;;;24.54;100.00
17772;BME280;9010;32.624;-96.938;2022-08-19T09:51:29;98990.09;;;24.56;100.00
17772;BME280;9010;32.624;-96.938;2022-08-19T09:54:00;98992.28;;;24.61;100.00
17772;BME280;9010;32.624;-96.938;2022-08-19T09:56:28;99001.22;;;24.53;100.00
17772;BME280;9010;32.624;-96.938;2022-08-19T09:58:58;99005.22;;;24.57;100.00
17772;BME280;9010;32.624;-96.938;2022-08-19T10:01:30;98995.47;;;24.56;100.00
17772;BME280;9010;32.624;-96.938;2022-08-19T10:04:00;99000.88;;;24.56;100.00
17772;BME280;9010;32.624;-96.938;2022-08-19T10:06:31;99004.19;;;24.58;100.00
17772;BME280;9010;32.624;-96.938;2022-08-19T10:09:00;99002.53;;;24.57;100.00
17772;BME280;9010;32.624;-96.938;2022-08-19T10:11:30;99001.88;;;24.55;100.00
17772;BME280;9010;32.624;-96.938;2022-08-19T10:13:58;99002.19;;;24.60;100.00
17772;BME280;9010;32.624;-96.938;2022-08-19T10:16:27;98998.53;;;24.53;100.00
17772;BME280;9010;32.624;-96.938;2022-08-19T10:18:55;98992.84;;;24.48;100.00
17772;BME280;9010;32.624;-96.938;2022-08-19T10:21:25;98991.16;;;24.47;100.00
17772;BME280;9010;32.624;-96.938;2022-08-19T10:23:56;98996.53;;;24.47;100.00
17772;BME280;9010;32.624;-96.938;2022-08-19T10:26:26;98998.56;;;24.45;100.00
17772;BME280;9010;32.624;-96.938;2022-08-19T10:28:56;98998.56;;;24.45;100.00
17772;BME280;9010;32.624;-96.938;2022-08-19T10:31:26;98996.88;;;24.44;100.00
17772;BME280;9010;32.624;-96.938;2022-08-19T10:33:55;98993.19;;;24.45;100.00
17772;BME280;9010;32.624;-96.938;2022-08-19T10:36:27;98992.84;;;24.48;100.00
17772;BME280;9010;32.624;-96.938;2022-08-19T10:38:59;98992.19;;;24.46;100.00
17772;BME280;9010;32.624;-96.938;2022-08-19T10:41:30;98999.22;;;24.47;100.00
17772;BME280;9010;32.624;-96.938;2022-08-19T10:44:00;98992.84;;;24.48;100.00
17772;BME280;9010;32.624;-96.938;2022-08-19T10:46:29;98991.50;;;24.52;100.00
17772;BME280;9010;32.624;-96.938;2022-08-19T10:48:59;98994.19;;;24.52;100.00
17772;BME280;9010;32.624;-96.938;2022-08-19T10:51:27;98995.53;;;24.48;100.00
17772;BME280;9010;32.624;-96.938;2022-08-19T10:54:14;98991.34;;;24.45;100.00
17772;BME280;9010;32.624;-96.938;2022-08-19T10:56:43;98993.34;;;24.51;100.00
17772;BME280;9010;32.624;-96.938;2022-08-19T10:59:20;98991.50;;;24.44;100.00
17772;BME280;9010;32.624;-96.938;2022-08-19T11:01:50;98996.88;;;24.44;100.00
17772;BME280;9010;32.624;-96.938;2022-08-19T11:04:19;98990.69;;;24.43;100.00
17772;BME280;9010;32.624;-96.938;2022-08-19T11:06:48;98992.22;;;24.38;100.00
17772;BME280;9010;32.624;-96.938;2022-08-19T11:09:21;98996.56;;;24.39;100.00
17772;BME280;9010;32.624;-96.938;2022-08-19T11:11:50;98988.50;;;24.39;100.00
17772;BME280;9010;32.624;-96.938;2022-08-19T11:14:20;98991.38;;;24.37;100.00
17772;BME280;9010;32.624;-96.938;2022-08-19T11:16:48;98991.50;;;24.44;100.00
17772;BME280;9010;32.624;-96.938;2022-08-19T11:19:17;98992.06;;;24.31;100.00
17772;BME280;9010;32.624;-96.938;2022-08-19T11:21:48;98993.91;;;24.31;100.00
17772;BME280;9010;32.624;-96.938;2022-08-19T11:24:19;98994.75;;;24.31;100.00
17772;BME280;9010;32.624;-96.938;2022-08-19T11:26:49;98987.88;;;24.29;100.00
17772;BME280;9010;32.624;-96.938;2022-08-19T11:29:20;98992.41;;;24.28;100.00
17772;BME280;9010;32.624;-96.938;2022-08-19T11:31:49;98987.84;;;24.37;100.00
17772;BME280;9010;32.624;-96.938;2022-08-19T11:34:19;98991.50;;;24.44;100.00
17772;BME280;9010;32.624;-96.938;2022-08-19T11:36:49;98996.88;;;24.44;100.00
17772;BME280;9010;32.624;-96.938;2022-08-19T11:39:22;98997.22;;;24.41;100.00
17772;BME280;9010;32.624;-96.938;2022-08-19T11:41:50;99004.47;;;24.32;100.00
17772;BME280;9010;32.624;-96.938;2022-08-19T11:44:18;99005.00;;;24.28;100.00
17772;BME280;9010;32.624;-96.938;2022-08-19T11:46:47;99006.34;;;24.24;100.00
17772;BME280;9010;32.624;-96.938;2022-08-19T11:49:17;99011.06;;;24.22;100.00
17772;BME280;9010;32.624;-96.938;2022-08-19T11:51:47;99022.00;;;24.20;100.00
17772;BME280;9010;32.624;-96.938;2022-08-19T11:54:18;99020.47;;;24.10;100.00
17772;BME280;9010;32.624;-96.938;2022-08-19T11:56:47;99027.53;;;24.11;100.00
17772;BME280;9010;32.624;-96.938;2022-08-19T11:59:15;99026.84;;;24.09;100.00
17772;BME280;9010;32.624;-96.938;2022-08-19T12:01:43;99028.88;;;24.07;100.00
17772;BME280;9010;32.624;-96.938;2022-08-19T12:04:12;99029.88;;;24.06;100.00
17772;BME280;9010;32.624;-96.938;2022-08-19T12:06:41;99031.22;;;24.10;100.00
17772;BME280;9010;32.624;-96.938;2022-08-19T12:09:10;99034.25;;;24.15;100.00
17772;BME280;9010;32.624;-96.938;2022-08-19T12:11:40;99033.56;;;24.13;100.00
17772;BME280;9010;32.624;-96.938;2022-08-19T12:14:10;99022.81;;;24.13;100.00
17772;BME280;9010;32.624;-96.938;2022-08-19T12:16:40;99028.91;;;24.15;100.00
17772;BME280;9010;32.624;-96.938;2022-08-19T12:19:08;99031.22;;;24.10;100.00
17772;BME280;9010;32.624;-96.938;2022-08-19T12:21:37;99030.06;;;24.12;100.00
17772;BME280;9010;32.624;-96.938;2022-08-19T12:24:06;99040.63;;;24.14;100.00
17772;BME280;9010;32.624;-96.938;2022-08-19T12:26:35;99035.25;;;24.14;100.00
17772;BME280;9010;32.624;-96.938;2022-08-19T12:29:05;99038.94;;;24.13;100.00
17772;BME280;9010;32.624;-96.938;2022-08-19T12:31:34;99039.63;;;24.15;100.00
17772;BME280;9010;32.624;-96.938;2022-08-19T12:34:02;99036.97;;;24.15;100.00
17772;BME280;9010;32.624;-96.938;2022-08-19T12:36:30;99046.34;;;24.19;100.00
17772;BME280;9010;32.624;-96.938;2022-08-19T12:38:59;99045.50;;;24.18;100.00
17772;BME280;9010;32.624;-96.938;2022-08-19T12:41:27;99048.88;;;24.20;100.00
17772;BME280;9010;32.624;-96.938;2022-08-19T12:43:55;99053.41;;;24.20;100.00
17772;BME280;9010;32.624;-96.938;2022-08-19T12:46:25;99050.06;;;24.18;100.00
17772;BME280;9010;32.624;-96.938;2022-08-19T12:48:54;99058.75;;;24.28;100.00
17772;BME280;9010;32.624;-96.938;2022-08-19T12:51:22;99059.94;;;24.25;100.00
17772;BME280;9010;32.624;-96.938;2022-08-19T12:53:51;99047.34;;;24.26;100.00
17772;BME280;9010;32.624;-96.938;2022-08-19T12:56:19;99058.78;;;24.20;100.00